Time;durP1;ratioP1;P1;durP2;ratioP2;P2;SDS_P1;SDS_P2;PMS_P1;PMS_P2;Temp;Humidity;BMP_temperature;BMP_pressure;BME280_temperature;BME280_humidity;BME280_pressure;Samples;Min_cycle;Max_cycle;Signal;HPM_P1;HPM_P2
2020/12/04 00:00:30;;;;;;;10.73;7.60;;;;;;;;;;5094192;28;20648;-64
2020/12/04 00:02:56;;;;;;;16.67;9.02;;;;;;;;;;5094846;28;20205;-63
2020/12/04 00:05:23;;;;;;;11.50;8.10;;;;;;;;;;5102594;28;20212;-64
2020/12/04 00:07:51;;;;;;;13.50;8.73;;;;;;;;;;5095147;28;20226;-66
2020/12/04 00:10:18;;;;;;;14.57;8.07;;;;;;;;;;5095227;28;20216;-66
2020/12/04 00:12:45;;;;;;;11.05;7.93;;;;;;;;;;5094572;28;20204;-66
2020/12/04 00:15:11;;;;;;;11.55;7.95;;;;;;;;;;5094172;28;20226;-65
2020/12/04 00:17:38;;;;;;;13.55;8.75;;;;;;;;;;5093694;28;20204;-65
2020/12/04 00:20:05;;;;;;;11.82;8.40;;;;;;;;;;5093269;28;20228;-65
2020/12/04 00:22:33;;;;;;;13.15;9.00;;;;;;;;;;5094327;28;20565;-65
2020/12/04 00:25:00;;;;;;;13.18;9.68;;;;;;;;;;5099413;28;20244;-65
2020/12/04 00:27:27;;;;;;;11.55;8.20;;;;;;;;;;5099254;28;20200;-64
2020/12/04 00:29:54;;;;;;;10.63;8.05;;;;;;;;;;5099388;28;20224;-65
2020/12/04 00:32:21;;;;;;;14.25;9.35;;;;;;;;;;5098384;28;20235;-66
2020/12/04 00:34:47;;;;;;;12.13;8.73;;;;;;;;;;5098256;28;20238;-65
2020/12/04 00:37:14;;;;;;;16.67;9.98;;;;;;;;;;5098174;28;20614;-65
2020/12/04 00:39:41;;;;;;;11.82;8.95;;;;;;;;;;5097404;28;20269;-66
2020/12/04 00:42:08;;;;;;;12.20;8.30;;;;;;;;;;5098330;28;20250;-66
2020/12/04 00:44:35;;;;;;;12.65;9.20;;;;;;;;;;5097155;28;20667;-66
2020/12/04 00:47:02;;;;;;;12.48;9.13;;;;;;;;;;5097072;28;20249;-65
2020/12/04 00:49:30;;;;;;;16.90;9.15;;;;;;;;;;5097222;28;20224;-65
2020/12/04 00:51:56;;;;;;;11.20;8.45;;;;;;;;;;5097293;28;20254;-65
2020/12/04 00:54:23;;;;;;;11.93;8.00;;;;;;;;;;5097141;28;20208;-65
2020/12/04 00:56:50;;;;;;;14.15;8.80;;;;;;;;;;5096933;28;20234;-65
2020/12/04 00:59:18;;;;;;;16.52;9.75;;;;;;;;;;5097290;28;20212;-65
2020/12/04 01:01:44;;;;;;;11.43;9.25;;;;;;;;;;5097145;28;20265;-64
2020/12/04 01:04:11;;;;;;;12.45;9.18;;;;;;;;;;5097004;28;20671;-65
2020/12/04 01:06:38;;;;;;;12.85;9.60;;;;;;;;;;5097108;28;20277;-65
2020/12/04 01:09:05;;;;;;;14.07;8.95;;;;;;;;;;5096775;28;20277;-64
2020/12/04 01:11:32;;;;;;;11.68;8.82;;;;;;;;;;5096823;28;20295;-66
2020/12/04 01:13:59;;;;;;;12.13;8.98;;;;;;;;;;5096852;28;20299;-65
2020/12/04 01:16:26;;;;;;;12.98;10.07;;;;;;;;;;5096586;28;20204;-65
2020/12/04 01:18:53;;;;;;;13.18;9.55;;;;;;;;;;5096679;28;20253;-65
2020/12/04 01:21:20;;;;;;;13.30;9.32;;;;;;;;;;5096712;28;20216;-65
2020/12/04 01:23:47;;;;;;;10.50;8.45;;;;;;;;;;5096535;28;20200;-65
2020/12/04 01:26:13;;;;;;;12.82;9.35;;;;;;;;;;5096680;28;20258;-65
2020/12/04 01:28:41;;;;;;;14.10;9.32;;;;;;;;;;5096401;28;20220;-64
2020/12/04 01:31:09;;;;;;;17.88;9.88;;;;;;;;;;5097626;28;20277;-66
2020/12/04 01:33:37;;;;;;;12.93;9.57;;;;;;;;;;5098737;28;20291;-65
2020/12/04 01:36:04;;;;;;;13.55;9.90;;;;;;;;;;5099380;28;20204;-65
2020/12/04 01:38:30;;;;;;;14.45;10.35;;;;;;;;;;5098992;28;20223;-66
2020/12/04 01:41:01;;;;;;;15.65;9.38;;;;;;;;;;5097413;28;20637;-65
2020/12/04 01:43:28;;;;;;;12.70;9.07;;;;;;;;;;5097438;28;20195;-66
2020/12/04 01:45:54;;;;;;;13.50;8.85;;;;;;;;;;5096322;28;20258;-65
2020/12/04 01:48:21;;;;;;;11.30;8.07;;;;;;;;;;5096490;28;20265;-65
2020/12/04 01:50:50;;;;;;;12.90;9.30;;;;;;;;;;5102241;28;20638;-64
2020/12/04 01:53:17;;;;;;;15.02;10.15;;;;;;;;;;5103636;28;20269;-65
2020/12/04 01:55:44;;;;;;;14.13;10.15;;;;;;;;;;5103378;28;20196;-67
2020/12/04 01:58:12;;;;;;;13.80;9.57;;;;;;;;;;5107174;28;20200;-65
2020/12/04 02:00:39;;;;;;;13.60;9.23;;;;;;;;;;5104945;28;20303;-64
2020/12/04 02:03:07;;;;;;;15.65;10.07;;;;;;;;;;5099942;28;20196;-65
2020/12/04 02:05:34;;;;;;;12.35;9.38;;;;;;;;;;5097538;28;20265;-64
2020/12/04 02:08:07;;;;;;;12.05;9.13;;;;;;;;;;5097268;28;20268;-66
2020/12/04 02:10:39;;;;;;;12.60;9.25;;;;;;;;;;5097795;28;20270;-64
2020/12/04 02:13:07;;;;;;;10.93;8.80;;;;;;;;;;5096570;28;20185;-65
2020/12/04 02:15:34;;;;;;;12.82;8.30;;;;;;;;;;5096382;28;20737;-64
2020/12/04 02:18:03;;;;;;;12.52;9.10;;;;;;;;;;5095765;28;20245;-65
2020/12/04 02:20:32;;;;;;;13.30;9.32;;;;;;;;;;5096141;28;20228;-65
2020/12/04 02:22:59;;;;;;;11.45;8.10;;;;;;;;;;5096310;28;20251;-65
2020/12/04 02:25:25;;;;;;;12.80;9.50;;;;;;;;;;5096121;28;20204;-64
2020/12/04 02:27:52;;;;;;;10.88;8.55;;;;;;;;;;5095698;28;20201;-64
2020/12/04 02:30:20;;;;;;;13.82;9.25;;;;;;;;;;5095708;28;20224;-64
2020/12/04 02:32:47;;;;;;;12.77;9.15;;;;;;;;;;5096055;28;20228;-64
2020/12/04 02:35:14;;;;;;;12.93;10.02;;;;;;;;;;5095141;28;20255;-66
2020/12/04 02:37:41;;;;;;;12.65;9.55;;;;;;;;;;5094739;28;20211;-64
2020/12/04 02:40:08;;;;;;;14.18;9.93;;;;;;;;;;5095109;28;20625;-64
2020/12/04 02:42:35;;;;;;;13.63;9.80;;;;;;;;;;5094960;28;20258;-65
2020/12/04 02:45:02;;;;;;;14.73;10.07;;;;;;;;;;5095224;28;20253;-65
2020/12/04 02:47:28;;;;;;;13.95;8.85;;;;;;;;;;5094204;28;20204;-65
2020/12/04 02:49:55;;;;;;;17.13;9.90;;;;;;;;;;5094595;28;20224;-64
2020/12/04 02:52:23;;;;;;;15.30;10.55;;;;;;;;;;5094763;28;20196;-65
2020/12/04 02:54:50;;;;;;;15.70;11.23;;;;;;;;;;5094976;28;20204;-65
2020/12/04 02:57:17;;;;;;;18.25;11.60;;;;;;;;;;5095894;28;20222;-65
2020/12/04 02:59:44;;;;;;;15.35;11.23;;;;;;;;;;5096484;28;20268;-65
2020/12/04 03:02:11;;;;;;;21.13;12.13;;;;;;;;;;5095740;28;20613;-65
2020/12/04 03:04:38;;;;;;;16.92;12.18;;;;;;;;;;5095908;28;20200;-65
2020/12/04 03:07:05;;;;;;;16.60;10.98;;;;;;;;;;5095097;28;20207;-65
2020/12/04 03:09:32;;;;;;;16.38;11.73;;;;;;;;;;5094920;28;20641;-65
2020/12/04 03:12:00;;;;;;;16.85;11.95;;;;;;;;;;5094837;28;20205;-65
2020/12/04 03:14:27;;;;;;;16.45;11.95;;;;;;;;;;5094035;28;20200;-64
2020/12/04 03:16:54;;;;;;;18.20;12.23;;;;;;;;;;5094497;28;20200;-65
2020/12/04 03:19:21;;;;;;;17.65;11.35;;;;;;;;;;5094188;28;20220;-64
2020/12/04 03:21:47;;;;;;;20.95;12.90;;;;;;;;;;5094050;28;20737;-65
2020/12/04 03:24:14;;;;;;;18.92;13.65;;;;;;;;;;5094041;28;20204;-65
2020/12/04 03:26:41;;;;;;;20.42;12.60;;;;;;;;;;5095079;28;20200;-65
2020/12/04 03:29:08;;;;;;;19.42;11.75;;;;;;;;;;5095246;28;20658;-65
2020/12/04 03:31:35;;;;;;;21.20;13.20;;;;;;;;;;5094933;28;20223;-65
2020/12/04 03:34:02;;;;;;;20.33;12.57;;;;;;;;;;5094823;28;20204;-67
2020/12/04 03:36:29;;;;;;;18.48;13.27;;;;;;;;;;5095000;28;20257;-66
2020/12/04 03:38:55;;;;;;;19.48;12.70;;;;;;;;;;5095458;28;20196;-65
2020/12/04 03:41:22;;;;;;;19.98;13.88;;;;;;;;;;5095150;28;20252;-66
2020/12/04 03:43:49;;;;;;;16.35;11.68;;;;;;;;;;5094660;28;20207;-66
2020/12/04 03:46:16;;;;;;;19.67;13.13;;;;;;;;;;5095178;28;20201;-65
2020/12/04 03:48:43;;;;;;;17.73;12.68;;;;;;;;;;5095805;28;20217;-65
2020/12/04 03:51:10;;;;;;;21.77;13.43;;;;;;;;;;5096369;28;20196;-65
2020/12/04 03:53:37;;;;;;;21.58;13.18;;;;;;;;;;5095532;28;20245;-65
2020/12/04 03:56:03;;;;;;;18.33;13.20;;;;;;;;;;5094942;28;20254;-64
2020/12/04 03:58:30;;;;;;;19.35;13.60;;;;;;;;;;5093660;28;20672;-66
2020/12/04 04:00:57;;;;;;;19.45;13.63;;;;;;;;;;5094017;28;20221;-66
2020/12/04 04:03:25;;;;;;;23.45;13.77;;;;;;;;;;5093523;28;20208;-66
2020/12/04 04:07:25;;;;;;;24.40;13.23;;;;;;;;;;5111751;27;20933;-65
2020/12/04 04:09:51;;;;;;;19.77;13.57;;;;;;;;;;5111297;28;20215;-65
2020/12/04 04:12:18;;;;;;;21.77;13.95;;;;;;;;;;5111214;28;20252;-65
2020/12/04 04:14:45;;;;;;;23.58;14.07;;;;;;;;;;5111161;28;20264;-65
2020/12/04 04:17:11;;;;;;;21.52;13.88;;;;;;;;;;5111340;28;20612;-66
2020/12/04 04:19:38;;;;;;;24.25;14.20;;;;;;;;;;5111017;28;20326;-66
2020/12/04 04:22:05;;;;;;;24.05;14.45;;;;;;;;;;5112197;28;20248;-66
2020/12/04 04:24:33;;;;;;;23.67;13.30;;;;;;;;;;5111045;28;20244;-65
2020/12/04 04:26:59;;;;;;;29.95;14.82;;;;;;;;;;5110532;28;20211;-66
2020/12/04 04:29:26;;;;;;;23.95;14.70;;;;;;;;;;5110754;28;20273;-66
2020/12/04 04:31:53;;;;;;;19.88;13.30;;;;;;;;;;5110644;28;20204;-65
2020/12/04 04:34:20;;;;;;;24.65;15.57;;;;;;;;;;5110900;28;20249;-66
2020/12/04 04:36:47;;;;;;;20.73;13.68;;;;;;;;;;5111188;28;20204;-65
2020/12/04 04:39:14;;;;;;;23.42;14.60;;;;;;;;;;5110794;28;20280;-67
2020/12/04 04:41:42;;;;;;;21.75;14.23;;;;;;;;;;5110864;28;20214;-65
2020/12/04 04:44:09;;;;;;;22.20;14.82;;;;;;;;;;5110913;28;20253;-66
2020/12/04 04:46:39;;;;;;;25.52;14.80;;;;;;;;;;5110867;28;20280;-65
2020/12/04 04:49:10;;;;;;;25.08;14.85;;;;;;;;;;5110697;28;20220;-66
2020/12/04 04:51:38;;;;;;;23.73;14.38;;;;;;;;;;5111010;28;20287;-66
2020/12/04 04:54:05;;;;;;;23.65;14.23;;;;;;;;;;5111055;28;20196;-65
2020/12/04 04:56:32;;;;;;;21.88;14.50;;;;;;;;;;5110297;28;20663;-65
2020/12/04 04:59:00;;;;;;;23.80;15.05;;;;;;;;;;5110851;28;20200;-66
2020/12/04 05:01:26;;;;;;;21.45;14.02;;;;;;;;;;5111454;28;20200;-66
2020/12/04 05:03:56;;;;;;;25.98;15.18;;;;;;;;;;5111157;28;20200;-65
2020/12/04 05:06:33;;;;;;;25.25;14.20;;;;;;;;;;5110963;28;20215;-66
2020/12/04 05:09:00;;;;;;;26.95;14.10;;;;;;;;;;5111216;28;20253;-66
2020/12/04 05:11:26;;;;;;;26.35;15.18;;;;;;;;;;5111261;28;20199;-68
2020/12/04 05:14:11;;;;;;;24.98;15.52;;;;;;;;;;5110211;28;20261;-67
2020/12/04 05:16:39;;;;;;;23.63;15.27;;;;;;;;;;5109096;28;20180;-65
2020/12/04 05:19:06;;;;;;;22.42;15.10;;;;;;;;;;5096965;28;20220;-66
2020/12/04 05:21:33;;;;;;;21.42;14.63;;;;;;;;;;5097579;28;20200;-66
2020/12/04 05:24:00;;;;;;;21.60;14.40;;;;;;;;;;5097164;28;20205;-65
2020/12/04 05:26:30;;;;;;;21.25;14.60;;;;;;;;;;5099372;28;20216;-65
2020/12/04 05:28:57;;;;;;;21.83;13.45;;;;;;;;;;5099432;28;20209;-65
2020/12/04 05:31:29;;;;;;;25.10;14.23;;;;;;;;;;5100047;28;20196;-64
2020/12/04 05:33:56;;;;;;;20.23;13.23;;;;;;;;;;5099413;28;20648;-66
2020/12/04 05:36:27;;;;;;;19.60;13.10;;;;;;;;;;5098216;28;20250;-66
2020/12/04 05:38:54;;;;;;;19.83;13.52;;;;;;;;;;5097081;28;20200;-65
2020/12/04 05:41:21;;;;;;;20.33;13.70;;;;;;;;;;5096427;28;20205;-67
2020/12/04 05:43:49;;;;;;;21.67;13.27;;;;;;;;;;5096154;28;20205;-65
2020/12/04 05:46:20;;;;;;;19.80;13.15;;;;;;;;;;5095743;28;20243;-65
2020/12/04 05:48:57;;;;;;;22.35;13.98;;;;;;;;;;5095769;28;20668;-66
2020/12/04 05:51:25;;;;;;;24.92;15.88;;;;;;;;;;5096587;28;20250;-66
2020/12/04 05:53:52;;;;;;;21.60;14.15;;;;;;;;;;5095499;28;20299;-67
2020/12/04 05:56:19;;;;;;;21.85;13.40;;;;;;;;;;5095624;28;20196;-66
2020/12/04 05:58:47;;;;;;;18.70;12.52;;;;;;;;;;5095422;28;20201;-66
2020/12/04 06:01:15;;;;;;;21.00;13.25;;;;;;;;;;5095889;28;20727;-65
2020/12/04 06:03:42;;;;;;;26.50;16.40;;;;;;;;;;5095439;28;20204;-65
2020/12/04 06:06:10;;;;;;;23.13;14.75;;;;;;;;;;5094992;28;20246;-64
2020/12/04 06:08:39;;;;;;;20.73;14.30;;;;;;;;;;5096822;28;20209;-65
2020/12/04 06:11:06;;;;;;;23.88;13.88;;;;;;;;;;5094816;28;20723;-65
2020/12/04 06:13:35;;;;;;;24.05;16.20;;;;;;;;;;5095884;28;20200;-65
2020/12/04 06:16:12;;;;;;;26.67;15.27;;;;;;;;;;5095700;28;20616;-65
2020/12/04 06:18:39;;;;;;;29.23;15.98;;;;;;;;;;5095082;28;20280;-64
2020/12/04 06:21:05;;;;;;;23.15;15.20;;;;;;;;;;5095721;28;20224;-64
2020/12/04 06:23:34;;;;;;;22.55;15.10;;;;;;;;;;5095438;28;20386;-65
2020/12/04 06:26:02;;;;;;;23.67;15.18;;;;;;;;;;5094839;28;20220;-64
2020/12/04 06:28:30;;;;;;;25.27;15.55;;;;;;;;;;5094853;28;20200;-67
2020/12/04 06:31:07;;;;;;;23.58;16.08;;;;;;;;;;5094845;28;20221;-66
2020/12/04 06:33:34;;;;;;;27.25;16.35;;;;;;;;;;5096061;28;20242;-65
2020/12/04 06:36:01;;;;;;;21.38;14.98;;;;;;;;;;5096080;28;20192;-65
2020/12/04 06:38:48;;;;;;;23.85;16.63;;;;;;;;;;5095349;28;20620;-66
2020/12/04 06:41:25;;;;;;;24.55;16.60;;;;;;;;;;5096480;28;20276;-64
2020/12/04 06:43:53;;;;;;;25.42;16.20;;;;;;;;;;5095806;28;20257;-65
2020/12/04 06:46:36;;;;;;;28.63;15.93;;;;;;;;;;5095164;28;20216;-63
2020/12/04 06:49:10;;;;;;;24.42;16.83;;;;;;;;;;5095918;28;20192;-64
2020/12/04 06:51:37;;;;;;;24.85;16.02;;;;;;;;;;5095188;28;20205;-66
2020/12/04 06:54:05;;;;;;;26.15;16.48;;;;;;;;;;5095205;28;20239;-65
2020/12/04 06:56:31;;;;;;;27.52;16.65;;;;;;;;;;5094308;28;20230;-65
2020/12/04 06:58:58;;;;;;;24.27;16.70;;;;;;;;;;5094597;28;20621;-66
2020/12/04 07:01:25;;;;;;;21.02;14.90;;;;;;;;;;5094752;28;20200;-66
2020/12/04 07:03:55;;;;;;;26.13;16.17;;;;;;;;;;5095097;28;20204;-65
2020/12/04 07:06:22;;;;;;;26.15;15.40;;;;;;;;;;5097503;28;20224;-64
2020/12/04 07:09:01;;;;;;;27.20;16.85;;;;;;;;;;5104044;28;20311;-65
2020/12/04 07:11:28;;;;;;;22.17;15.10;;;;;;;;;;5103312;28;20650;-65
2020/12/04 07:13:55;;;;;;;22.73;15.55;;;;;;;;;;5095811;28;20211;-65
2020/12/04 07:16:22;;;;;;;23.40;15.13;;;;;;;;;;5095484;28;20192;-65
2020/12/04 07:18:52;;;;;;;26.38;14.73;;;;;;;;;;5095499;28;20200;-66
2020/12/04 07:21:19;;;;;;;23.27;15.25;;;;;;;;;;5096571;28;20195;-65
2020/12/04 07:23:46;;;;;;;22.55;14.88;;;;;;;;;;5095384;28;20200;-65
2020/12/04 07:26:13;;;;;;;24.50;15.88;;;;;;;;;;5094184;28;20274;-66
2020/12/04 07:28:41;;;;;;;22.13;14.45;;;;;;;;;;5094818;28;20208;-64
2020/12/04 07:31:14;;;;;;;25.63;16.95;;;;;;;;;;5094527;28;20220;-64
2020/12/04 07:33:50;;;;;;;23.65;15.10;;;;;;;;;;5095153;28;20221;-65
2020/12/04 07:36:17;;;;;;;27.20;15.40;;;;;;;;;;5095658;28;20233;-67
2020/12/04 07:38:50;;;;;;;21.25;14.40;;;;;;;;;;5096127;28;20226;-65
2020/12/04 07:41:35;;;;;;;22.00;14.25;;;;;;;;;;5094412;28;20588;-64
2020/12/04 07:44:06;;;;;;;20.15;13.40;;;;;;;;;;5093866;28;20188;-65
2020/12/04 07:46:33;;;;;;;23.23;13.93;;;;;;;;;;5093834;28;20311;-66
2020/12/04 07:49:04;;;;;;;22.92;14.80;;;;;;;;;;5093687;28;20573;-64
2020/12/04 07:51:31;;;;;;;20.63;13.65;;;;;;;;;;5094103;28;20188;-66
2020/12/04 07:53:58;;;;;;;19.40;13.75;;;;;;;;;;5094081;28;20204;-66
2020/12/04 07:56:25;;;;;;;20.85;13.32;;;;;;;;;;5094217;28;20197;-67
2020/12/04 07:58:58;;;;;;;19.95;14.10;;;;;;;;;;5093139;28;20196;-69
2020/12/04 08:01:25;;;;;;;22.60;14.57;;;;;;;;;;5093658;28;20254;-67
2020/12/04 08:03:52;;;;;;;21.45;13.07;;;;;;;;;;5093735;28;20594;-65
2020/12/04 08:06:22;;;;;;;21.75;13.13;;;;;;;;;;5093191;28;20274;-67
2020/12/04 08:08:49;;;;;;;21.42;12.98;;;;;;;;;;5093433;28;20266;-67
2020/12/04 08:11:18;;;;;;;19.52;12.95;;;;;;;;;;5093773;28;20203;-69
2020/12/04 08:13:45;;;;;;;20.13;12.20;;;;;;;;;;5093575;28;20201;-67
2020/12/04 08:16:12;;;;;;;19.35;12.70;;;;;;;;;;5094743;28;20685;-68
2020/12/04 08:18:41;;;;;;;20.83;13.82;;;;;;;;;;5093560;28;20254;-66
2020/12/04 08:21:07;;;;;;;22.55;13.95;;;;;;;;;;5093301;28;20224;-69
2020/12/04 08:23:35;;;;;;;16.92;11.70;;;;;;;;;;5093166;28;20226;-71
2020/12/04 08:26:01;;;;;;;22.42;13.63;;;;;;;;;;5093604;28;20230;-68
2020/12/04 08:28:28;;;;;;;25.13;13.52;;;;;;;;;;5093762;28;20329;-71
2020/12/04 08:30:55;;;;;;;22.60;13.52;;;;;;;;;;5093500;28;20777;-69
2020/12/04 08:33:21;;;;;;;25.55;13.27;;;;;;;;;;5093487;28;20209;-72
2020/12/04 08:35:49;;;;;;;21.75;13.88;;;;;;;;;;5093663;28;20200;-64
2020/12/04 08:38:19;;;;;;;21.83;14.35;;;;;;;;;;5093617;28;20633;-70
2020/12/04 08:40:49;;;;;;;22.77;12.95;;;;;;;;;;5094027;28;20259;-66
2020/12/04 08:43:17;;;;;;;23.30;14.80;;;;;;;;;;5094681;28;20189;-69
2020/12/04 08:45:44;;;;;;;20.85;13.25;;;;;;;;;;5093903;28;20258;-68
2020/12/04 08:48:12;;;;;;;22.08;14.40;;;;;;;;;;5094663;28;20204;-69
2020/12/04 08:50:43;;;;;;;24.13;16.35;;;;;;;;;;5094200;28;20593;-68
2020/12/04 08:53:11;;;;;;;18.10;12.05;;;;;;;;;;5095566;28;20684;-69
2020/12/04 08:55:38;;;;;;;22.35;14.30;;;;;;;;;;5097500;28;20277;-71
2020/12/04 08:58:04;;;;;;;20.42;13.00;;;;;;;;;;5097264;28;20576;-67
2020/12/04 09:00:32;;;;;;;27.10;13.88;;;;;;;;;;5096604;28;20289;-67
2020/12/04 09:02:59;;;;;;;23.40;15.40;;;;;;;;;;5096681;28;20663;-65
2020/12/04 09:05:27;;;;;;;20.63;12.90;;;;;;;;;;5096870;28;20287;-65
2020/12/04 09:07:53;;;;;;;21.92;14.40;;;;;;;;;;5096444;28;20289;-65
2020/12/04 09:10:22;;;;;;;21.63;13.65;;;;;;;;;;5096211;28;20228;-65
2020/12/04 09:12:49;;;;;;;25.27;13.43;;;;;;;;;;5097544;28;20200;-65
2020/12/04 09:15:17;;;;;;;26.27;14.38;;;;;;;;;;5096991;28;20254;-66
2020/12/04 09:17:44;;;;;;;23.50;13.00;;;;;;;;;;5096511;28;20204;-65
2020/12/04 09:20:11;;;;;;;21.60;13.05;;;;;;;;;;5096115;28;20265;-67
2020/12/04 09:22:38;;;;;;;21.88;13.77;;;;;;;;;;5096312;28;20668;-65
2020/12/04 09:25:07;;;;;;;22.38;13.75;;;;;;;;;;5096036;28;20672;-65
2020/12/04 09:27:34;;;;;;;21.35;13.65;;;;;;;;;;5096202;28;20274;-65
2020/12/04 09:30:01;;;;;;;21.88;13.63;;;;;;;;;;5095730;28;20253;-66
2020/12/04 09:32:28;;;;;;;21.63;13.48;;;;;;;;;;5096026;28;20257;-67
2020/12/04 09:34:55;;;;;;;23.65;14.48;;;;;;;;;;5096672;28;20205;-66
2020/12/04 09:37:23;;;;;;;25.98;13.93;;;;;;;;;;5096004;28;20733;-67
2020/12/04 09:39:51;;;;;;;20.05;12.45;;;;;;;;;;5096727;28;20235;-68
2020/12/04 09:42:18;;;;;;;17.85;12.35;;;;;;;;;;5096551;28;20257;-68
2020/12/04 09:44:46;;;;;;;21.58;12.70;;;;;;;;;;5096422;28;20204;-67
2020/12/04 09:47:13;;;;;;;18.60;11.30;;;;;;;;;;5096630;28;20692;-66
2020/12/04 09:49:39;;;;;;;19.73;13.45;;;;;;;;;;5096756;28;20259;-64
2020/12/04 09:52:06;;;;;;;19.60;11.65;;;;;;;;;;5096728;28;20196;-66
2020/12/04 09:54:35;;;;;;;23.15;12.40;;;;;;;;;;5095903;28;20245;-66
2020/12/04 09:57:02;;;;;;;19.17;11.60;;;;;;;;;;5098105;28;20201;-67
2020/12/04 09:59:29;;;;;;;20.85;12.10;;;;;;;;;;5098466;28;20251;-67
2020/12/04 10:01:56;;;;;;;20.35;12.68;;;;;;;;;;5099269;28;20200;-67
2020/12/04 10:04:24;;;;;;;23.08;11.65;;;;;;;;;;5100569;28;20211;-66
2020/12/04 10:06:51;;;;;;;22.52;12.88;;;;;;;;;;5097643;28;20295;-65
2020/12/04 10:09:18;;;;;;;21.55;11.43;;;;;;;;;;5098217;28;20772;-66
2020/12/04 10:11:46;;;;;;;19.42;12.05;;;;;;;;;;5097356;28;20258;-69
2020/12/04 10:14:13;;;;;;;17.40;11.50;;;;;;;;;;5097503;28;20201;-65
2020/12/04 10:16:41;;;;;;;17.30;10.93;;;;;;;;;;5097456;28;20235;-66
2020/12/04 10:19:08;;;;;;;20.33;12.10;;;;;;;;;;5097561;28;20220;-68
2020/12/04 10:21:35;;;;;;;16.98;11.70;;;;;;;;;;5096457;28;20615;-67
2020/12/04 10:24:03;;;;;;;16.67;10.80;;;;;;;;;;5095559;28;20211;-67
2020/12/04 10:26:29;;;;;;;19.67;11.85;;;;;;;;;;5095042;28;20217;-70
2020/12/04 10:28:56;;;;;;;17.38;11.15;;;;;;;;;;5095676;28;20618;-69
2020/12/04 10:31:23;;;;;;;16.55;11.00;;;;;;;;;;5097995;28;20253;-68
2020/12/04 10:33:50;;;;;;;15.80;11.35;;;;;;;;;;5097487;28;20292;-69
2020/12/04 10:36:17;;;;;;;17.88;10.07;;;;;;;;;;5097181;28;20196;-64
2020/12/04 10:38:44;;;;;;;18.50;10.15;;;;;;;;;;5097012;28;20621;-64
2020/12/04 10:41:11;;;;;;;18.90;9.90;;;;;;;;;;5095989;28;20230;-61
2020/12/04 10:43:38;;;;;;;19.05;10.32;;;;;;;;;;5095357;28;20208;-66
2020/12/04 10:46:05;;;;;;;16.85;9.70;;;;;;;;;;5095187;28;20204;-67
2020/12/04 10:48:31;;;;;;;15.68;9.57;;;;;;;;;;5096844;28;20200;-65
2020/12/04 10:50:58;;;;;;;13.57;8.90;;;;;;;;;;5096583;28;20281;-68
2020/12/04 10:53:28;;;;;;;18.98;9.45;;;;;;;;;;5096279;28;20200;-67
2020/12/04 10:55:54;;;;;;;16.85;9.77;;;;;;;;;;5096255;28;20207;-67
2020/12/04 10:58:21;;;;;;;20.00;9.43;;;;;;;;;;5097422;28;20246;-66
2020/12/04 11:00:49;;;;;;;18.15;10.90;;;;;;;;;;5095847;28;20250;-65
2020/12/04 11:03:24;;;;;;;16.05;9.38;;;;;;;;;;5095299;28;20267;-66
2020/12/04 11:05:50;;;;;;;16.73;11.10;;;;;;;;;;5094923;28;20251;-66
2020/12/04 11:08:17;;;;;;;20.92;10.88;;;;;;;;;;5094811;28;20230;-69
2020/12/04 11:10:45;;;;;;;16.55;9.77;;;;;;;;;;5094530;28;20636;-68
2020/12/04 11:13:11;;;;;;;19.83;9.77;;;;;;;;;;5094763;28;20299;-68
2020/12/04 11:15:38;;;;;;;17.90;10.40;;;;;;;;;;5093715;28;20253;-65
2020/12/04 11:18:05;;;;;;;18.45;9.43;;;;;;;;;;5094866;28;20668;-66
2020/12/04 11:20:32;;;;;;;16.10;9.23;;;;;;;;;;5096744;28;20630;-66
2020/12/04 11:22:58;;;;;;;15.10;9.27;;;;;;;;;;5096619;28;20204;-66
2020/12/04 11:25:25;;;;;;;14.63;9.45;;;;;;;;;;5096127;28;20600;-67
2020/12/04 11:27:53;;;;;;;16.15;9.60;;;;;;;;;;5094763;28;20220;-65
2020/12/04 11:30:21;;;;;;;15.07;9.68;;;;;;;;;;5094796;28;20231;-65
2020/12/04 11:32:48;;;;;;;15.77;9.68;;;;;;;;;;5094971;28;20260;-66
2020/12/04 11:35:15;;;;;;;16.13;10.63;;;;;;;;;;5094831;28;20200;-68
2020/12/04 11:37:43;;;;;;;15.48;9.60;;;;;;;;;;5096474;28;20270;-67
2020/12/04 11:40:11;;;;;;;15.05;10.00;;;;;;;;;;5096165;28;20320;-67
2020/12/04 11:42:39;;;;;;;13.93;9.75;;;;;;;;;;5095689;28;20285;-67
2020/12/04 11:45:06;;;;;;;15.05;9.45;;;;;;;;;;5094748;28;20200;-65
2020/12/04 11:47:37;;;;;;;15.43;8.65;;;;;;;;;;5094395;28;20220;-65
2020/12/04 11:50:04;;;;;;;13.20;8.10;;;;;;;;;;5094128;28;20585;-66
2020/12/04 11:52:30;;;;;;;14.73;8.80;;;;;;;;;;5094130;28;20200;-67
2020/12/04 11:54:57;;;;;;;12.15;7.60;;;;;;;;;;5094972;28;20196;-68
2020/12/04 11:57:24;;;;;;;15.30;9.85;;;;;;;;;;5094092;28;20265;-66
2020/12/04 11:59:51;;;;;;;18.35;9.98;;;;;;;;;;5094090;28;20634;-68
2020/12/04 12:02:19;;;;;;;14.95;8.32;;;;;;;;;;5093934;28;20700;-66
2020/12/04 12:04:45;;;;;;;12.93;8.27;;;;;;;;;;5094369;28;20636;-66
2020/12/04 12:07:12;;;;;;;13.15;7.88;;;;;;;;;;5094278;28;20641;-67
2020/12/04 12:09:39;;;;;;;11.38;7.80;;;;;;;;;;5094598;28;20227;-65
2020/12/04 12:12:06;;;;;;;14.05;8.32;;;;;;;;;;5094246;28;20257;-66
2020/12/04 12:14:33;;;;;;;16.35;8.60;;;;;;;;;;5094300;28;20196;-69
2020/12/04 12:16:59;;;;;;;14.23;8.30;;;;;;;;;;5094193;28;20193;-69
2020/12/04 12:19:27;;;;;;;18.80;9.13;;;;;;;;;;5094454;28;20626;-67
2020/12/04 12:21:55;;;;;;;12.52;7.40;;;;;;;;;;5093837;28;20687;-67
2020/12/04 12:24:22;;;;;;;12.00;7.53;;;;;;;;;;5094190;28;20206;-67
2020/12/04 12:26:49;;;;;;;12.32;8.05;;;;;;;;;;5093603;28;20223;-66
2020/12/04 12:29:16;;;;;;;12.20;7.20;;;;;;;;;;5097703;28;20254;-64
2020/12/04 12:31:42;;;;;;;12.82;6.97;;;;;;;;;;5098167;28;20672;-66
2020/12/04 12:34:09;;;;;;;11.35;6.85;;;;;;;;;;5098118;28;20204;-65
2020/12/04 12:36:37;;;;;;;11.57;6.93;;;;;;;;;;5098339;28;20204;-68
2020/12/04 12:39:04;;;;;;;13.10;7.68;;;;;;;;;;5097633;28;20200;-68
2020/12/04 12:41:30;;;;;;;13.82;8.15;;;;;;;;;;5097468;28;20200;-67
2020/12/04 12:43:57;;;;;;;14.07;7.70;;;;;;;;;;5097630;28;20245;-64
2020/12/04 12:46:24;;;;;;;12.20;7.50;;;;;;;;;;5097374;28;20265;-70
2020/12/04 12:48:51;;;;;;;17.10;8.05;;;;;;;;;;5097613;28;20204;-66
2020/12/04 12:51:17;;;;;;;16.83;8.02;;;;;;;;;;5096765;28;20200;-66
2020/12/04 12:53:45;;;;;;;13.10;7.18;;;;;;;;;;5096804;28;20204;-64
2020/12/04 12:56:12;;;;;;;10.70;7.00;;;;;;;;;;5097218;28;20257;-68
2020/12/04 12:58:38;;;;;;;9.68;6.93;;;;;;;;;;5098629;28;20761;-68
2020/12/04 13:01:06;;;;;;;14.07;7.97;;;;;;;;;;5098059;28;20300;-65
2020/12/04 13:03:33;;;;;;;13.18;7.00;;;;;;;;;;5097117;28;20197;-70
2020/12/04 13:06:00;;;;;;;12.38;7.35;;;;;;;;;;5097001;28;20219;-68
2020/12/04 13:08:27;;;;;;;13.75;7.75;;;;;;;;;;5098283;28;20224;-69
2020/12/04 13:10:54;;;;;;;10.60;7.13;;;;;;;;;;5100830;28;20216;-69
2020/12/04 13:13:21;;;;;;;14.55;8.55;;;;;;;;;;5097738;28;20729;-68
2020/12/04 13:15:49;;;;;;;13.73;8.10;;;;;;;;;;5099517;28;20204;-68
2020/12/04 13:18:17;;;;;;;11.55;7.22;;;;;;;;;;5098230;28;20204;-67
2020/12/04 13:20:44;;;;;;;17.92;8.00;;;;;;;;;;5100744;28;20307;-68
2020/12/04 13:23:17;;;;;;;15.65;8.00;;;;;;;;;;5097244;28;20575;-69
2020/12/04 13:25:45;;;;;;;15.30;9.50;;;;;;;;;;5096944;28;20188;-66
2020/12/04 13:28:12;;;;;;;16.38;8.77;;;;;;;;;;5096691;28;20217;-68
2020/12/04 13:30:39;;;;;;;17.63;10.27;;;;;;;;;;5097309;28;20224;-68
2020/12/04 13:33:06;;;;;;;14.60;8.30;;;;;;;;;;5096286;28;20211;-68
2020/12/04 13:35:34;;;;;;;16.45;8.93;;;;;;;;;;5096150;28;20724;-67
2020/12/04 13:38:01;;;;;;;17.73;9.40;;;;;;;;;;5095852;28;20197;-68
2020/12/04 13:40:28;;;;;;;13.07;7.72;;;;;;;;;;5096518;28;20228;-67
2020/12/04 13:42:54;;;;;;;12.75;8.05;;;;;;;;;;5096373;28;20200;-67
2020/12/04 13:45:22;;;;;;;15.23;8.32;;;;;;;;;;5097530;28;20667;-67
2020/12/04 13:47:49;;;;;;;13.60;8.02;;;;;;;;;;5099182;28;20224;-67
2020/12/04 13:50:16;;;;;;;16.73;8.13;;;;;;;;;;5100263;28;20301;-67
2020/12/04 13:52:42;;;;;;;12.52;6.63;;;;;;;;;;5098965;28;20212;-67
2020/12/04 13:55:09;;;;;;;10.85;7.07;;;;;;;;;;5096588;28;20672;-66
2020/12/04 13:57:36;;;;;;;13.65;7.43;;;;;;;;;;5096910;28;20201;-67
2020/12/04 14:00:03;;;;;;;15.05;7.22;;;;;;;;;;5097828;28;20246;-65
2020/12/04 14:02:31;;;;;;;11.90;6.85;;;;;;;;;;5096495;28;20204;-65
2020/12/04 14:04:58;;;;;;;10.68;7.65;;;;;;;;;;5096467;28;20200;-66
2020/12/04 14:07:26;;;;;;;13.40;6.60;;;;;;;;;;5097310;28;20254;-66
2020/12/04 14:09:53;;;;;;;11.63;6.57;;;;;;;;;;5096891;28;20269;-66
2020/12/04 14:12:19;;;;;;;12.07;6.18;;;;;;;;;;5095775;28;20196;-64
2020/12/04 14:14:46;;;;;;;10.18;6.30;;;;;;;;;;5095538;28;20223;-67
2020/12/04 14:17:17;;;;;;;12.27;8.70;;;;;;;;;;5095370;28;20200;-66
2020/12/04 14:19:44;;;;;;;10.63;7.88;;;;;;;;;;5095686;28;20223;-67
2020/12/04 14:22:11;;;;;;;14.98;8.80;;;;;;;;;;5095203;28;20200;-64
2020/12/04 14:24:38;;;;;;;13.40;7.65;;;;;;;;;;5096149;28;20257;-65
2020/12/04 14:27:04;;;;;;;12.05;8.02;;;;;;;;;;5096587;28;20520;-68